• Join FlightAware (Why Join?)
  • Login
  • US Flag 
02:09PM EDT


 

Airport Tracker/Info


-or-


 

Live Flight TrackerFlight Track Log ✈ TYR94 ✈ 15-Apr-2013 ✈ KIAD - LOWW / VIE

Flight Track Log - Related Links

Times and Time Zones

All times are in EDT time to prevent confusion due to time zone crossing. See the TYR94 flight status page for this flight to view local times or setup timezone preferences in your user account.

Time Position Orientation Groundspeed Altitude Reporting Facility
EDT Latitude Longitude Course Direction KTS MPH feet Rate Location/Type
05:54PM 39.3884 -76.8331 48° Northeast  Level Estimated
05:55PM 39.4761 -76.7068 48° Northeast  Level Estimated
05:56PM 39.5638 -76.5801 48° Northeast  Level Estimated
05:57PM 39.6513 -76.4532 48° Northeast  Level Estimated
05:58PM 39.7386 -76.3259 48° Northeast  Level Estimated
05:59PM 39.8259 -76.1983 48° Northeast  Level Estimated
06:00PM 39.9129 -76.0704 48° Northeast  Level Estimated
06:01PM 39.9999 -75.9421 48° Northeast  Level Estimated
06:02PM 40.0867 -75.8135 49° Northeast  Level Estimated
06:03PM 40.1733 -75.6846 49° Northeast  Level Estimated
06:04PM 40.2598 -75.5554 49° Northeast  Level Estimated
06:05PM 40.3462 -75.4258 49° Northeast  Level Estimated
06:06PM 40.4324 -75.2959 49° Northeast  Level Estimated
06:07PM 40.5185 -75.1657 49° Northeast  Level Estimated
06:08PM 40.6045 -75.0351 49° Northeast  Level Estimated
06:09PM 40.6902 -74.9042 49° Northeast  Level Estimated
06:10PM 40.7759 -74.7730 49° Northeast  Level Estimated
06:11PM 40.8614 -74.6414 49° Northeast  Level Estimated
06:12PM 40.9467 -74.5095 49° Northeast  Level Estimated
06:13PM 41.0319 -74.3772 49° Northeast  Level Estimated
06:14PM 41.1169 -74.2446 50° Northeast  Level Estimated
06:15PM 41.2018 -74.1117 50° Northeast  Level Estimated
06:16PM 41.2865 -73.9784 50° Northeast  Level Estimated
06:17PM 41.3711 -73.8448 50° Northeast  Level Estimated
06:18PM 41.4556 -73.7108 50° Northeast  Level Estimated
06:19PM 41.5398 -73.5764 50° Northeast  Level Estimated
06:20PM 41.6239 -73.4418 50° Northeast  Level Estimated
06:21PM 41.7079 -73.3067 50° Northeast  Level Estimated
06:22PM 41.7917 -73.1713 50° Northeast  Level Estimated
06:23PM 41.8753 -73.0356 50° Northeast  Level Estimated
06:24PM 41.9588 -72.8995 50° Northeast  Level Estimated
06:25PM 42.0421 -72.7631 51° Northeast  Level Estimated
06:26PM 42.1252 -72.6263 51° Northeast  Level Estimated
06:27PM 42.2082 -72.4891 51° Northeast  Level Estimated
06:28PM 42.2910 -72.3515 51° Northeast  Level Estimated
06:29PM 42.3737 -72.2137 51° Northeast  Level Estimated
06:30PM 42.4562 -72.0754 51° Northeast  Level Estimated
06:31PM 42.5385 -71.9368 51° Northeast  Level Estimated
06:32PM 42.6207 -71.7978 51° Northeast  Level Estimated
06:33PM 42.7027 -71.6585 51° Northeast  Level Estimated
06:34PM 42.7845 -71.5187 51° Northeast  Level Estimated
06:35PM 42.8661 -71.3786 51° Northeast  Level Estimated
06:36PM 42.9476 -71.2382 52° Northeast  Level Estimated
06:37PM 43.0289 -71.0974 52° Northeast  Level Estimated
06:38PM 43.1101 -70.9561 52° Northeast  Level Estimated
06:39PM 43.1910 -70.8146 52° Northeast  Level Estimated
06:40PM 43.2718 -70.6726 52° Northeast  Level Estimated
06:41PM 43.3524 -70.5303 52° Northeast  Level Estimated
06:42PM 43.4328 -70.3876 52° Northeast  Level Estimated
06:43PM 43.5131 -70.2445 52° Northeast  Level Estimated
06:44PM 43.5932 -70.1010 52° Northeast  Level Estimated
06:45PM 43.6731 -69.9572 52° Northeast  Level Estimated
06:46PM 43.7528 -69.8129 53° Northeast  Level Estimated
06:47PM 43.8323 -69.6683 53° Northeast  Level Estimated
06:48PM 43.9117 -69.5233 53° Northeast  Level Estimated
06:49PM 43.9908 -69.3779 53° Northeast  Level Estimated
06:50PM 44.0698 -69.2321 53° Northeast  Level Estimated
06:51PM 44.1486 -69.0860 53° Northeast  Level Estimated
06:52PM 44.2272 -68.9394 53° Northeast  Level Estimated
06:53PM 44.3056 -68.7924 53° Northeast  Level Estimated
06:54PM 44.3839 -68.6451 53° Northeast  Level Estimated
06:55PM 44.4619 -68.4974 53° Northeast  Level Estimated
06:56PM 44.5397 -68.3492 54° Northeast  Level Estimated
06:57PM 44.6174 -68.2007 54° Northeast  Level Estimated
06:58PM 44.6949 -68.0518 54° Northeast  Level Estimated
06:59PM 44.7721 -67.9025 54° Northeast  Level Estimated
07:00PM 44.8492 -67.7527 54° Northeast  Level Estimated
07:01PM 44.9261 -67.6026 54° Northeast  Level Estimated
07:02PM 45.0028 -67.4521 54° Northeast  Level Estimated
07:03PM 45.0793 -67.3011 54° Northeast  Level Estimated
07:04PM 45.1555 -67.1498 54° Northeast  Level Estimated
07:05PM 45.2316 -66.9981 55° Northeast  Level Estimated
07:06PM 45.3075 -66.8459 55° Northeast  Level Estimated
07:07PM 45.3832 -66.6934 55° Northeast  Level Estimated
07:08PM 45.4587 -66.5404 55° Northeast  Level Estimated
07:09PM 45.5339 -66.3871 55° Northeast  Level Estimated
07:10PM 45.6090 -66.2333 55° Northeast  Level Estimated
07:11PM 45.6839 -66.0791 55° Northeast  Level Estimated
07:12PM 45.7585 -65.9245 55° Northeast  Level Estimated
07:13PM 45.8330 -65.7695 55° Northeast  Level Estimated
07:14PM 45.9072 -65.6140 55° Northeast  Level Estimated
07:15PM 45.9812 -65.4582 56° Northeast  Level Estimated
07:16PM 46.0550 -65.3019 56° Northeast  Level Estimated
07:17PM 46.1286 -65.1452 56° Northeast  Level Estimated
07:18PM 46.2020 -64.9881 56° Northeast  Level Estimated
07:19PM 46.2752 -64.8306 56° Northeast  Level Estimated
07:20PM 46.3481 -64.6727 56° Northeast  Level Estimated
07:21PM 46.4208 -64.5143 56° Northeast  Level Estimated
07:22PM 46.4934 -64.3555 56° Northeast  Level Estimated
07:23PM 46.5657 -64.1963 57° Northeast  Level Estimated
07:24PM 46.6377 -64.0367 57° Northeast  Level Estimated
07:25PM 46.7096 -63.8766 57° Northeast  Level Estimated
07:26PM 46.7812 -63.7161 57° Northeast  Level Estimated
07:27PM 46.8526 -63.5552 57° Northeast  Level Estimated
07:28PM 46.9238 -63.3939 57° Northeast  Level Estimated
07:29PM 46.9947 -63.2321 57° Northeast  Level Estimated
07:30PM 47.0654 -63.0699 57° Northeast  Level Estimated
07:31PM 47.1359 -62.9073 57° Northeast  Level Estimated
07:32PM 47.2062 -62.7442 58° Northeast  Level Estimated
07:33PM 47.2762 -62.5807 58° Northeast  Level Estimated
07:34PM 47.3460 -62.4168 58° Northeast  Level Estimated
07:35PM 47.4155 -62.2525 58° Northeast  Level Estimated
07:36PM 47.4849 -62.0877 58° Northeast  Level Estimated
07:37PM 47.5539 -61.9225 58° Northeast  Level Estimated
07:38PM 47.6228 -61.7568 58° Northeast  Level Estimated
07:39PM 47.6914 -61.5907 58° Northeast  Level Estimated
07:40PM 47.7598 -61.4242 59° Northeast  Level Estimated
07:41PM 47.8279 -61.2572 59° Northeast  Level Estimated
07:42PM 47.8958 -61.0898 59° Northeast  Level Estimated
07:43PM 47.9634 -60.9219 59° Northeast  Level Estimated
07:44PM 48.0308 -60.7536 59° Northeast  Level Estimated
07:45PM 48.0980 -60.5849 59° Northeast  Level Estimated
07:46PM 48.1649 -60.4157 59° Northeast  Level Estimated
07:47PM 48.2315 -60.2461 59° Northeast  Level Estimated
07:48PM 48.2979 -60.0761 60° Northeast  Level Estimated
07:49PM 48.3641 -59.9056 60° Northeast  Level Estimated
07:50PM 48.4300 -59.7347 60° Northeast  Level Estimated
07:51PM 48.4956 -59.5633 60° Northeast  Level Estimated
07:52PM 48.5610 -59.3915 60° Northeast  Level Estimated
07:53PM 48.6261 -59.2192 60° Northeast  Level Estimated
07:54PM 48.6910 -59.0465 60° Northeast  Level Estimated
07:55PM 48.7556 -58.8733 60° Northeast  Level Estimated
07:56PM 48.8200 -58.6997 61° Northeast  Level Estimated
07:57PM 48.8840 -58.5257 61° Northeast  Level Estimated
07:58PM 48.9479 -58.3512 61° Northeast  Level Estimated
07:59PM 49.0114 -58.1763 61° Northeast  Level Estimated
08:00PM 49.0747 -58.0009 61° Northeast  Level Estimated
08:01PM 49.1378 -57.8251 61° Northeast  Level Estimated
08:02PM 49.2006 -57.6488 61° Northeast  Level Estimated
08:03PM 49.2631 -57.4720 61° Northeast  Level Estimated
08:04PM 49.3253 -57.2949 62° Northeast  Level Estimated
08:05PM 49.3872 -57.1173 62° Northeast  Level Estimated
08:06PM 49.4489 -56.9392 62° Northeast  Level Estimated
08:07PM 49.5103 -56.7607 62° Northeast  Level Estimated
08:08PM 49.5715 -56.5817 62° Northeast  Level Estimated
08:09PM 49.6323 -56.4023 62° Northeast  Level Estimated
08:10PM 49.6929 -56.2225 62° Northeast  Level Estimated
08:11PM 49.7532 -56.0421 63° Northeast  Level Estimated
08:12PM 49.8132 -55.8614 63° Northeast  Level Estimated
08:13PM 49.8730 -55.6802 63° Northeast  Level Estimated
08:14PM 49.9324 -55.4986 63° Northeast  Level Estimated
08:15PM 49.9916 -55.3164 63° Northeast  Level Estimated
08:16PM 50.0505 -55.1339 63° Northeast  Level Estimated
08:17PM 50.1091 -54.9509 63° Northeast  Level Estimated
08:18PM 50.1674 -54.7675 64° Northeast  Level Estimated
08:19PM 50.2254 -54.5836 64° Northeast  Level Estimated
08:20PM 50.2831 -54.3993 64° Northeast  Level Estimated
08:21PM 50.3406 -54.2145 64° Northeast  Level Estimated
08:22PM 50.3977 -54.0293 64° Northeast  Level Estimated
08:23PM 50.4546 -53.8436 64° Northeast  Level Estimated
08:24PM 50.5111 -53.6575 64° Northeast  Level Estimated
08:25PM 50.5674 -53.4709 65° Northeast  Level Estimated
08:26PM 50.6233 -53.2839 65° Northeast  Level Estimated
08:27PM 50.6790 -53.0964 65° Northeast  Level Estimated
08:28PM 50.7344 -52.9085 65° Northeast  Level Estimated
08:29PM 50.7894 -52.7202 65° Northeast  Level Estimated
08:30PM 50.8442 -52.5314 65° Northeast  Level Estimated
08:31PM 50.8986 -52.3422 65° Northeast  Level Estimated
08:32PM 50.9528 -52.1525 66° East  Level Estimated
08:33PM 51.0066 -51.9624 66° East  Level Estimated
08:34PM 51.0601 -51.7719 66° East  Level Estimated
08:35PM 51.1133 -51.5809 66° East  Level Estimated
08:36PM 51.1662 -51.3895 66° East  Level Estimated
08:37PM 51.2188 -51.1976 66° East  Level Estimated
08:38PM 51.2711 -51.0053 66° East  Level Estimated
08:39PM 51.3230 -50.8125 67° East  Level Estimated
08:40PM 51.3746 -50.6194 67° East  Level Estimated
08:41PM 51.4260 -50.4258 67° East  Level Estimated
08:42PM 51.4770 -50.2317 67° East  Level Estimated
08:43PM 51.5276 -50.0373 67° East  Level Estimated
08:44PM 51.5780 -49.8423 67° East  Level Estimated
08:45PM 51.6280 -49.6470 68° East  Level Estimated
08:46PM 51.6777 -49.4512 68° East  Level Estimated
08:47PM 51.7271 -49.2550 68° East  Level Estimated
08:48PM 51.7762 -49.0584 68° East  Level Estimated
08:49PM 51.8249 -48.8614 68° East  Level Estimated
08:50PM 51.8733 -48.6639 68° East  Level Estimated
08:51PM 51.9214 -48.4660 68° East  Level Estimated
08:52PM 51.9691 -48.2677 69° East  Level Estimated
08:53PM 52.0165 -48.0689 69° East  Level Estimated
08:54PM 52.0636 -47.8697 69° East  Level Estimated
08:55PM 52.1103 -47.6702 69° East  Level Estimated
08:56PM 52.1567 -47.4701 69° East  Level Estimated
08:57PM 52.2027 -47.2697 69° East  Level Estimated
08:58PM 52.2484 -47.0689 70° East  Level Estimated
08:59PM 52.2938 -46.8677 70° East  Level Estimated
09:00PM 52.3388 -46.6660 70° East  Level Estimated
09:01PM 52.3835 -46.4639 70° East  Level Estimated
09:02PM 52.4279 -46.2615 70° East  Level Estimated
09:03PM 52.4719 -46.0586 70° East  Level Estimated
09:04PM 52.5155 -45.8553 70° East  Level Estimated
09:05PM 52.5588 -45.6516 71° East  Level Estimated
09:06PM 52.6017 -45.4475 71° East  Level Estimated
09:07PM 52.6443 -45.2430 71° East  Level Estimated
09:08PM 52.6866 -45.0382 71° East  Level Estimated
09:09PM 52.7284 -44.8329 71° East  Level Estimated
09:10PM 52.7700 -44.6272 71° East  Level Estimated
09:11PM 52.8111 -44.4211 72° East  Level Estimated
09:12PM 52.8520 -44.2147 72° East  Level Estimated
09:13PM 52.8924 -44.0079 72° East  Level Estimated
09:14PM 52.9325 -43.8006 72° East  Level Estimated
09:15PM 52.9723 -43.5930 72° East  Level Estimated
09:16PM 53.0116 -43.3850 72° East  Level Estimated
09:17PM 53.0506 -43.1767 73° East  Level Estimated
09:18PM 53.0893 -42.9679 73° East  Level Estimated
09:19PM 53.1276 -42.7588 73° East  Level Estimated
09:20PM 53.1655 -42.5493 73° East  Level Estimated
09:21PM 53.2030 -42.3395 73° East  Level Estimated
09:22PM 53.2402 -42.1293 73° East  Level Estimated
09:23PM 53.2770 -41.9187 74° East  Level Estimated
09:24PM 53.3134 -41.7077 74° East  Level Estimated
09:25PM 53.3495 -41.4964 74° East  Level Estimated
09:26PM 53.3852 -41.2848 74° East  Level Estimated
09:27PM 53.4205 -41.0728 74° East  Level Estimated
09:28PM 53.4554 -40.8604 74° East  Level Estimated
09:29PM 53.4900 -40.6477 75° East  Level Estimated
09:30PM 53.5242 -40.4347 75° East  Level Estimated
09:31PM 53.5580 -40.2212 75° East  Level Estimated
09:32PM 53.5914 -40.0075 75° East  Level Estimated
09:33PM 53.6244 -39.7934 75° East  Level Estimated
09:34PM 53.6571 -39.5790 76° East  Level Estimated
09:35PM 53.6894 -39.3643 76° East  Level Estimated
09:36PM 53.7213 -39.1492 76° East  Level Estimated
09:37PM 53.7528 -38.9338 76° East  Level Estimated
09:38PM 53.7839 -38.7181 76° East  Level Estimated
09:39PM 53.8146 -38.5021 76° East  Level Estimated
09:40PM 53.8450 -38.2858 77° East  Level Estimated
09:41PM 53.8749 -38.0691 77° East  Level Estimated
09:42PM 53.9045 -37.8521 77° East  Level Estimated
09:43PM 53.9336 -37.6349 77° East  Level Estimated
09:44PM 53.9624 -37.4173 77° East  Level Estimated
09:45PM 53.9908 -37.1994 77° East  Level Estimated
09:46PM 54.0188 -36.9813 78° East  Level Estimated
09:47PM 54.0464 -36.7628 78° East  Level Estimated
09:48PM 54.0736 -36.5441 78° East  Level Estimated
09:49PM 54.1004 -36.3250 78° East  Level Estimated
09:50PM 54.1268 -36.1057 78° East  Level Estimated
09:51PM 54.1528 -35.8861 78° East  Level Estimated
09:52PM 54.1784 -35.6663 79° East  Level Estimated
09:53PM 54.2036 -35.4462 79° East  Level Estimated
09:54PM 54.2284 -35.2257 79° East  Level Estimated
09:55PM 54.2528 -35.0051 79° East  Level Estimated
09:56PM 54.2768 -34.7842 79° East  Level Estimated
09:57PM 54.3004 -34.5630 80° East  Level Estimated
09:58PM 54.3235 -34.3416 80° East  Level Estimated
09:59PM 54.3463 -34.1199 80° East  Level Estimated
10:00PM 54.3687 -33.8980 80° East  Level Estimated
10:01PM 54.3906 -33.6758 80° East  Level Estimated
10:02PM 54.4122 -33.4534 80° East  Level Estimated
10:03PM 54.4333 -33.2308 81° East  Level Estimated
10:04PM 54.4541 -33.0079 81° East  Level Estimated
10:05PM 54.4744 -32.7849 81° East  Level Estimated
10:06PM 54.4943 -32.5616 81° East  Level Estimated
10:07PM 54.5138 -32.3381 81° East  Level Estimated
10:08PM 54.5329 -32.1143 82° East  Level Estimated
10:09PM 54.5516 -31.8904 82° East  Level Estimated
10:10PM 54.5699 -31.6663 82° East  Level Estimated
10:11PM 54.5877 -31.4419 82° East  Level Estimated
10:12PM 54.6051 -31.2174 82° East  Level Estimated
10:13PM 54.6222 -30.9927 82° East  Level Estimated
10:14PM 54.6387 -30.7678 83° East  Level Estimated
10:15PM 54.6549 -30.5427 83° East  Level Estimated
10:16PM 54.6707 -30.3174 83° East  Level Estimated
10:17PM 54.6861 -30.0920 83° East  Level Estimated
10:18PM 54.7010 -29.8664 83° East  Level Estimated
10:19PM 54.7155 -29.6407 84° East  Level Estimated
10:20PM 54.7296 -29.4147 84° East  Level Estimated
10:21PM 54.7433 -29.1887 84° East  Level Estimated
10:22PM 54.7565 -28.9624 84° East  Level Estimated
10:23PM 54.7693 -28.7360 84° East  Level Estimated
10:24PM 54.7817 -28.5095 84° East  Level Estimated
10:25PM 54.7937 -28.2829 85° East  Level Estimated
10:26PM 54.8053 -28.0561 85° East  Level Estimated
10:27PM 54.8164 -27.8292 85° East  Level Estimated
10:28PM 54.8271 -27.6021 85° East  Level Estimated
10:29PM 54.8374 -27.3750 85° East  Level Estimated
10:30PM 54.8473 -27.1477 86° East  Level Estimated
10:31PM 54.8567 -26.9203 86° East  Level Estimated
10:32PM 54.8658 -26.6929 86° East  Level Estimated
10:33PM 54.8744 -26.4653 86° East  Level Estimated
10:34PM 54.8825 -26.2376 86° East  Level Estimated
10:35PM 54.8903 -26.0099 87° East  Level Estimated
10:36PM 54.8976 -25.7820 87° East  Level Estimated
10:37PM 54.9045 -25.5541 87° East  Level Estimated
10:38PM 54.9109 -25.3261 87° East  Level Estimated
10:39PM 54.9170 -25.0980 87° East  Level Estimated
10:40PM 54.9226 -24.8699 87° East  Level Estimated
10:41PM 54.9278 -24.6417 88° East  Level Estimated
10:42PM 54.9325 -24.4134 88° East  Level Estimated
10:43PM 54.9368 -24.1851 88° East  Level Estimated
10:44PM 54.9407 -23.9567 88° East  Level Estimated
10:45PM 54.9442 -23.7283 88° East  Level Estimated
10:46PM 54.9473 -23.4999 89° East  Level Estimated
10:47PM 54.9499 -23.2714 89° East  Level Estimated
10:48PM 54.9520 -23.0429 89° East  Level Estimated
10:49PM 54.9538 -22.8144 89° East  Level Estimated
10:50PM 54.9551 -22.5859 89° East  Level Estimated
10:51PM 54.9560 -22.3573 90° East  Level Estimated
10:52PM 54.9565 -22.1287 90° East  Level Estimated
10:53PM 54.9565 -21.9002 90° East  Level Estimated
10:54PM 54.9562 -21.6716 90° East  Level Estimated
10:55PM 54.9553 -21.4431 90° East  Level Estimated
10:56PM 54.9541 -21.2145 90° East  Level Estimated
10:57PM 54.9524 -20.9860 91° East  Level Estimated
10:58PM 54.9503 -20.7575 91° East  Level Estimated
10:59PM 54.9478 -20.5291 91° East  Level Estimated
11:00PM 54.9448 -20.3006 91° East  Level Estimated
11:01PM 54.9414 -20.0722 91° East  Level Estimated
11:02PM 54.9376 -19.8438 92° East  Level Estimated
11:03PM 54.9334 -19.6155 92° East  Level Estimated
11:04PM 54.9287 -19.3872 92° East  Level Estimated
11:05PM 54.9236 -19.1590 92° East  Level Estimated
11:06PM 54.9181 -18.9309 92° East  Level Estimated
11:07PM 54.9122 -18.7028 93° East  Level Estimated
11:08PM 54.9058 -18.4748 93° East  Level Estimated
11:09PM 54.8990 -18.2468 93° East  Level Estimated
11:10PM 54.8917 -18.0190 93° East  Level Estimated
11:11PM 54.8841 -17.7912 93° East  Level Estimated
11:12PM 54.8760 -17.5635 93° East  Level Estimated
11:13PM 54.8675 -17.3359 94° East  Level Estimated
11:14PM 54.8586 -17.1084 94° East  Level Estimated
11:15PM 54.8492 -16.8810 94° East  Level Estimated
11:16PM 54.8394 -16.6537 94° East  Level Estimated
11:17PM 54.8292 -16.4265 94° East  Level Estimated
11:18PM 54.8186 -16.1995 95° East  Level Estimated
11:19PM 54.8075 -15.9725 95° East  Level Estimated
11:20PM 54.7960 -15.7457 95° East  Level Estimated
11:21PM 54.7841 -15.5190 95° East  Level Estimated
11:22PM 54.7718 -15.2925 95° East  Level Estimated
11:23PM 54.7591 -15.0661 95° East  Level Estimated
11:24PM 54.7459 -14.8398 96° East  Level Estimated
11:25PM 54.7323 -14.6137 96° East  Level Estimated
11:26PM 54.7183 -14.3878 96° East  Level Estimated
11:27PM 54.7039 -14.1620 96° East  Level Estimated
11:28PM 54.6890 -13.9363 96° East  Level Estimated
11:29PM 54.6737 -13.7109 97° East  Level Estimated
11:30PM 54.6581 -13.4856 97° East  Level Estimated
11:31PM 54.6420 -13.2605 97° East  Level Estimated
11:32PM 54.6254 -13.0355 97° East  Level Estimated
11:33PM 54.6085 -12.8108 97° East  Level Estimated
11:34PM 54.5911 -12.5862 98° East  Level Estimated
11:35PM 54.5734 -12.3618 98° East  Level Estimated
11:36PM 54.5552 -12.1377 98° East  Level Estimated
11:37PM 54.5366 -11.9137 98° East  Level Estimated
11:38PM 54.5176 -11.6899 98° East  Level Estimated
11:39PM 54.4982 -11.4664 98° East  Level Estimated
11:40PM 54.4783 -11.2431 99° East  Level Estimated
11:41PM 54.4581 -11.0199 99° East  Level Estimated
11:42PM 54.4374 -10.7970 99° East  Level Estimated
11:43PM 54.4164 -10.5744 99° East  Level Estimated
11:44PM 54.3949 -10.3519 99° East  Level Estimated
11:45PM 54.3730 -10.1297 100° East  Level Estimated
11:46PM 54.3507 -9.9078 100° East  Level Estimated
11:47PM 54.3280 -9.6860 100° East  Level Estimated
11:48PM 54.3049 -9.4646 100° East  Level Estimated
11:49PM 54.2814 -9.2433 100° East  Level Estimated
11:50PM 54.2575 -9.0224 100° East  Level Estimated
11:51PM 54.2332 -8.8017 101° East  Level Estimated
11:52PM 54.2085 -8.5812 101° East  Level Estimated
11:53PM 54.1833 -8.3610 101° East  Level Estimated
11:54PM 54.1578 -8.1411 101° East  Level Estimated
11:55PM 54.1319 -7.9215 101° East  Level Estimated
11:56PM 54.1056 -7.7021 101° East  Level Estimated
11:57PM 54.0789 -7.4830 102° East  Level Estimated
11:58PM 54.0517 -7.2642 102° East  Level Estimated
11:59PM 54.0242 -7.0457 102° East  Level Estimated
12:00AM 53.9963 -6.8275 102° East  Level Estimated
12:01AM 53.9680 -6.6096 102° East  Level Estimated
12:02AM 53.9393 -6.3919 103° East  Level Estimated
12:03AM 53.9102 -6.1746 103° East  Level Estimated
12:04AM 53.8807 -5.9576 103° East  Level Estimated
12:05AM 53.8509 -5.7409 103° East  Level Estimated
12:06AM 53.8206 -5.5245 103° East  Level Estimated
12:07AM 53.7900 -5.3084 103° East  Level Estimated
12:08AM 53.7589 -5.0926 104° East  Level Estimated
12:09AM 53.7275 -4.8772 104° East  Level Estimated
12:10AM 53.6957 -4.6620 104° East  Level Estimated
12:11AM 53.6635 -4.4472 104° East  Level Estimated
12:12AM 53.6309 -4.2328 104° East  Level Estimated
12:13AM 53.5979 -4.0186 104° East  Level Estimated
12:14AM 53.5646 -3.8048 105° East  Level Estimated
12:15AM 53.5309 -3.5914 105° East  Level Estimated
12:16AM 53.4968 -3.3782 105° East  Level Estimated
12:17AM 53.4623 -3.1655 105° East  Level Estimated
12:18AM 53.4274 -2.9530 105° East  Level Estimated
12:19AM 53.3922 -2.7410 105° East  Level Estimated
12:20AM 53.3566 -2.5292 106° East  Level Estimated
12:21AM 53.3206 -2.3179 106° East  Level Estimated
12:22AM 53.2842 -2.1068 106° East  Level Estimated
12:23AM 53.2475 -1.8962 106° East  Level Estimated
12:24AM 53.2104 -1.6859 106° East  Level Estimated
12:25AM 53.1729 -1.4760 107° East  Level Estimated
12:26AM 53.1351 -1.2664 107° East  Level Estimated
12:27AM 53.0969 -1.0572 107° East  Level Estimated
12:28AM 53.0583 -0.8484 107° East  Level Estimated
12:29AM 53.0194 -0.6400 107° East  Level Estimated
12:30AM 52.9801 -0.4319 107° East  Level Estimated
12:31AM 52.9404 -0.2242 108° East  Level Estimated
12:32AM 52.9004 -0.0169 108° East  Level Estimated
12:33AM 52.8600 0.1900 108° East  Level Estimated
12:34AM 52.8192 0.3965 108° East  Level Estimated
12:35AM 52.7781 0.6026 108° East  Level Estimated
12:36AM 52.7367 0.8084 108° East  Level Estimated
12:37AM 52.6948 1.0137 108° East  Level Estimated
12:38AM 52.6527 1.2187 109° East  Level Estimated
12:39AM 52.6101 1.4233 109° East  Level Estimated
12:40AM 52.5673 1.6274 109° East  Level Estimated
12:41AM 52.5241 1.8312 109° East  Level Estimated
12:42AM 52.4805 2.0346 109° East  Level Estimated
12:43AM 52.4366 2.2375 109° East  Level Estimated
12:44AM 52.3923 2.4401 110° East  Level Estimated
12:45AM 52.3477 2.6422 110° East  Level Estimated
12:46AM 52.3027 2.8440 110° East  Level Estimated
12:47AM 52.2574 3.0453 110° East  Level Estimated
12:48AM 52.2118 3.2462 110° East  Level Estimated
12:49AM 52.1658 3.4467 110° East  Level Estimated
12:50AM 52.1195 3.6468 111° Southeast  Level Estimated
12:51AM 52.0728 3.8465 111° Southeast  Level Estimated
12:52AM 52.0258 4.0457 111° Southeast  Level Estimated
12:53AM 51.9785 4.2445 111° Southeast  Level Estimated
12:54AM 51.9308 4.4429 111° Southeast  Level Estimated
12:55AM 51.8828 4.6409 111° Southeast  Level Estimated
12:56AM 51.8345 4.8385 112° Southeast  Level Estimated
12:57AM 51.7858 5.0356 112° Southeast  Level Estimated
12:58AM 51.7368 5.2323 112° Southeast  Level Estimated
12:59AM 51.6875 5.4286 112° Southeast  Level Estimated
01:00AM 51.6379 5.6245 112° Southeast  Level Estimated
01:01AM 51.5879 5.8199 112° Southeast  Level Estimated
01:02AM 51.5376 6.0149 112° Southeast  Level Estimated
01:03AM 51.4870 6.2094 113° Southeast  Level Estimated
01:04AM 51.4361 6.4036 113° Southeast  Level Estimated
01:05AM 51.3848 6.5973 113° Southeast  Level Estimated
01:06AM 51.3332 6.7905 113° Southeast  Level Estimated
01:07AM 51.2813 6.9833 113° Southeast  Level Estimated
01:08AM 51.2291 7.1757 113° Southeast  Level Estimated
01:09AM 51.1766 7.3677 114° Southeast  Level Estimated
01:10AM 51.1237 7.5592 114° Southeast  Level Estimated
01:11AM 51.0706 7.7503 114° Southeast  Level Estimated
01:12AM 51.0171 7.9409 114° Southeast  Level Estimated
01:13AM 50.9634 8.1311 114° Southeast  Level Estimated
01:14AM 50.9093 8.3208 114° Southeast  Level Estimated
01:15AM 50.8549 8.5101 114° Southeast  Level Estimated
01:16AM 50.8002 8.6990 115° Southeast  Level Estimated
01:17AM 50.7452 8.8874 115° Southeast  Level Estimated
01:18AM 50.6899 9.0754 115° Southeast  Level Estimated
01:19AM 50.6343 9.2630 115° Southeast  Level Estimated
01:20AM 50.5784 9.4501 115° Southeast  Level Estimated
01:21AM 50.5222 9.6367 115° Southeast  Level Estimated
01:22AM 50.4657 9.8229 115° Southeast  Level Estimated
01:23AM 50.4089 10.0087 116° Southeast  Level Estimated
01:24AM 50.3518 10.1940 116° Southeast  Level Estimated
01:25AM 50.2945 10.3788 116° Southeast  Level Estimated
01:26AM 50.2368 10.5633 116° Southeast  Level Estimated
01:27AM 50.1788 10.7472 116° Southeast  Level Estimated
01:28AM 50.1206 10.9308 116° Southeast  Level Estimated
01:29AM 50.0620 11.1138 116° Southeast  Level Estimated
01:30AM 50.0032 11.2965 117° Southeast  Level Estimated
01:31AM 49.9441 11.4787 117° Southeast  Level Estimated
01:32AM 49.8847 11.6604 117° Southeast  Level Estimated
01:33AM 49.8250 11.8417 117° Southeast  Level Estimated
01:34AM 49.7650 12.0225 117° Southeast  Level Estimated
01:35AM 49.7048 12.2029 117° Southeast  Level Estimated
01:36AM 49.6443 12.3828 117° Southeast  Level Estimated
01:37AM 49.5835 12.5624 118° Southeast  Level Estimated
01:38AM 49.5224 12.7414 118° Southeast  Level Estimated
01:39AM 49.4610 12.9200 118° Southeast  Level Estimated
01:40AM 49.3994 13.0982 118° Southeast  Level Estimated
01:41AM 49.3375 13.2759 118° Southeast  Level Estimated
01:42AM 49.2753 13.4531 118° Southeast  Level Estimated
01:43AM 49.2129 13.6299 118° Southeast  Level Estimated
01:44AM 49.1502 13.8063 118° Southeast  Level Estimated
01:45AM 49.0872 13.9822 119° Southeast  Level Estimated
01:46AM 49.0239 14.1577 119° Southeast  Level Estimated
01:47AM 48.9604 14.3327 119° Southeast  Level Estimated
01:48AM 48.8966 14.5073 119° Southeast  Level Estimated
01:49AM 48.8326 14.6814 119° Southeast  Level Estimated
01:50AM 48.7683 14.8551 119° Southeast  Level Estimated
01:51AM 48.7037 15.0283 119° Southeast  Level Estimated
01:52AM 48.6389 15.2011 120° Southeast  Level Estimated
01:53AM 48.5738 15.3735 120° Southeast  Level Estimated
01:54AM 48.5085 15.5454 120° Southeast  Level Estimated
01:55AM 48.4429 15.7169 120° Southeast  Level Estimated
01:56AM 48.3770 15.8879 120° Southeast  Level Estimated
01:57AM 48.3110 16.0585 120° Southeast  Level Estimated
01:58AM 48.2446 16.2286 120° Southeast  Level Estimated
01:59AM 48.1780 16.3983 120° Southeast  Level Estimated
02:00AM 48.1111 16.5675 121° Southeast  Level Estimated
02:01AM 48.1103 16.5697 121° Southeast  Level Estimated
02:02AM 48.1103 16.5697 146° Southeast  Level Estimated
02:03AM 48.1103 16.5697 146° Southeast  Level Estimated
02:04AM 48.1103 16.5697 146° Southeast  Level Estimated
02:05AM 48.1103 16.5697 146° Southeast  Level Estimated
02:06AM 48.1103 16.5697 146° Southeast  Level Estimated
02:07AM 48.1103 16.5697 146° Southeast  Level Estimated
02:08AM 48.1103 16.5697 146° Southeast  Level Estimated
02:09AM 48.1103 16.5697 146° Southeast  Level Estimated
02:10AM 48.1103 16.5697 146° Southeast  Level Estimated